This is the latest recevied weather packets stored in our database for station/object TA2NC-13. If no packets are shown the sender has not sent any weather packets the latest 10 day(s).
| Time | Temp. | Humidity | Pressure | Rain* | Wind** | Luminosity | Snow |
|---|---|---|---|---|---|---|---|
| 1777278601 | 18.89° C | 38% | 1013.5 hPa | 0 mm | - | - | - |
| 1777278000 | 19.44° C | 38% | 1013.5 hPa | 0 mm | - | - | - |
| 1777277401 | 19.44° C | 38% | 1013.5 hPa | 0 mm | - | - | - |
| 1777276801 | 18.89° C | 42% | 1013.5 hPa | 0 mm | - | - | - |
| 1777276200 | 19.44° C | 37% | 1013.5 hPa | 0 mm | - | - | - |
| 1777275600 | 20° C | 36% | 1013.5 hPa | 0 mm | - | - | - |
| 1777275000 | 20° C | 37% | 1013.5 hPa | 0 mm | - | - | - |
| 1777274400 | 19.44° C | 37% | 1013.5 hPa | 0 mm | - | - | - |
| 1777273800 | 19.44° C | 37% | 1013.5 hPa | 0 mm | - | - | - |
| 1777273344 | 18.33° C | 41% | 1013.5 hPa | 0 mm | - | - | - |
| 1777273200 | 17.78° C | 44% | 1013.5 hPa | 0 mm | - | - | - |
| 1777272600 | 16.67° C | 43% | 1013.5 hPa | 0 mm | - | - | - |
| 1777272000 | 17.22° C | 42% | 1013.5 hPa | 0 mm | - | - | - |
| 1777271400 | 17.22° C | 40% | 1013.5 hPa | 0 mm | - | - | - |
| 1777270800 | 18.89° C | 41% | 1013.5 hPa | 0 mm | - | - | - |
| 1777270200 | 17.78° C | 42% | 1013.5 hPa | 0 mm | - | - | - |
| 1777269600 | 17.78° C | 44% | 1013.5 hPa | 0 mm | - | - | - |
| 1777269000 | 16.11° C | 47% | 1013.5 hPa | 0 mm | - | - | - |
| 1777268400 | 15.56° C | 47% | 1013.5 hPa | 0 mm | - | - | - |
| 1777267800 | 13.33° C | 57% | 1013.5 hPa | 0 mm | - | - | - |
| 1777267201 | 11.11° C | 61% | 1013.5 hPa | 0 mm | - | - | - |
| 1777266600 | 10° C | 63% | 1013.5 hPa | 0 mm | - | - | - |
| 1777266000 | 9.44° C | 69% | 1013.5 hPa | 0 mm | - | - | - |
| 1777265400 | 8.33° C | 71% | 1013.5 hPa | 0 mm | - | - | - |
| 1777264800 | 7.78° C | 71% | 1013.5 hPa | 0 mm | - | - | - |
* Rain latest hour (hover to see other rain measurements)
** Current wind speed in m/s (hover to see current wind gust speed)